createdAt,value
2022-07-29T13:10:32.621Z,6.18
2022-07-29T13:13:19.560Z,9.50
2022-07-29T13:16:09.008Z,5.88
2022-07-29T13:19:09.335Z,6.47
2022-07-29T13:21:57.352Z,7.00
2022-07-29T13:27:35.335Z,5.00
2022-07-29T13:30:22.903Z,5.43
2022-07-29T13:33:08.380Z,3.45
2022-07-29T13:35:53.838Z,4.68
2022-07-29T13:38:39.559Z,3.28
2022-07-29T13:42:20.164Z,6.20
2022-07-29T13:44:47.586Z,6.63
2022-07-29T13:49:13.689Z,6.03
2022-07-29T13:51:41.088Z,7.45
2022-07-29T13:54:07.939Z,5.30
2022-07-29T13:56:34.778Z,4.38
2022-07-29T13:59:02.746Z,7.88
2022-07-29T14:01:29.549Z,6.70
2022-07-29T14:03:56.360Z,4.90
2022-07-29T14:06:25.127Z,5.30
2022-07-29T14:08:52.287Z,6.05
2022-07-29T14:11:19.205Z,5.93
2022-07-29T14:13:46.660Z,5.07
2022-07-29T14:16:14.708Z,7.28
2022-07-29T14:18:41.526Z,4.95
2022-07-29T14:21:09.282Z,7.07
2022-07-29T14:23:37.982Z,7.13
2022-07-29T14:26:10.797Z,8.48
2022-07-29T14:28:42.832Z,5.70
2022-07-29T14:31:10.315Z,4.53
2022-07-29T14:33:37.086Z,6.43
2022-07-29T14:36:04.423Z,4.28
2022-07-29T14:38:31.898Z,5.15
2022-07-29T14:41:00.070Z,8.95
2022-07-29T14:43:27.085Z,4.88
2022-07-29T14:45:58.776Z,5.03
2022-07-29T14:48:29.254Z,6.35
2022-07-29T14:50:56.631Z,4.07
2022-07-29T14:53:23.506Z,6.30
2022-07-29T14:55:50.498Z,4.90
2022-07-29T14:58:19.219Z,11.90
2022-07-29T15:00:46.075Z,17.42
2022-07-29T15:03:12.897Z,4.35
2022-07-29T15:05:50.393Z,4.47
2022-07-29T15:08:17.170Z,5.20
2022-07-29T15:10:43.943Z,4.13
2022-07-29T15:13:11.436Z,3.97
2022-07-29T15:15:39.705Z,7.80
2022-07-29T15:18:06.471Z,11.45
2022-07-29T15:20:33.888Z,2.75
2022-07-29T15:23:00.775Z,4.57
2022-07-29T15:25:28.344Z,5.35
2022-07-29T15:30:32.958Z,3.25
2022-07-29T15:33:03.505Z,6.55
2022-07-29T15:35:30.301Z,5.93
2022-07-29T15:37:57.126Z,4.38
2022-07-29T15:40:24.523Z,7.00
2022-07-29T15:42:51.840Z,3.45
2022-07-29T15:45:18.602Z,4.32
2022-07-29T15:47:45.989Z,5.68
2022-07-29T15:50:14.151Z,7.32
2022-07-29T15:52:41.192Z,5.70
2022-07-29T15:55:09.427Z,4.18
2022-07-29T15:57:36.190Z,8.20
2022-07-29T16:00:04.014Z,4.90
2022-07-29T16:04:58.039Z,6.57
2022-07-29T16:07:31.468Z,2.67
2022-07-29T16:10:00.027Z,9.45
2022-07-29T16:12:26.950Z,3.80
2022-07-29T16:14:53.757Z,7.82
2022-07-29T16:17:21.618Z,5.43
2022-07-29T16:19:48.560Z,4.43
2022-07-29T16:22:15.409Z,6.03
2022-07-29T16:24:44.147Z,4.90
2022-07-29T16:27:10.948Z,3.85
2022-07-29T16:29:37.747Z,4.90
2022-07-29T16:32:05.941Z,5.40
2022-07-29T16:34:32.859Z,8.37
2022-07-29T16:36:59.953Z,5.25
2022-07-29T16:39:27.546Z,3.72
2022-07-29T16:41:59.850Z,4.30
2022-07-29T16:44:28.399Z,6.72
2022-07-29T16:46:56.280Z,3.80
2022-07-29T16:49:26.488Z,5.30
2022-07-29T16:51:53.942Z,4.20
2022-07-29T16:54:20.734Z,6.50
2022-07-29T16:56:47.489Z,4.30
2022-07-29T16:59:16.240Z,5.43
2022-07-29T17:01:43.080Z,3.10
2022-07-29T17:04:09.876Z,4.55
2022-07-29T17:06:39.423Z,3.70
2022-07-29T17:09:08.479Z,6.20
2022-07-29T17:11:51.806Z,4.35
2022-07-29T17:14:24.383Z,5.38
2022-07-29T17:17:02.399Z,4.28
2022-07-29T17:19:31.995Z,6.43
2022-07-29T17:22:08.909Z,4.78
2022-07-29T17:24:38.121Z,5.20
2022-07-29T17:27:05.633Z,3.05
2022-07-29T17:29:33.768Z,4.13
2022-07-29T17:32:01.157Z,5.72
2022-07-29T17:34:28.001Z,2.35
2022-07-29T17:36:54.764Z,8.63
2022-07-29T17:39:22.230Z,5.40
2022-07-29T17:41:49.007Z,1.85
2022-07-29T17:44:15.794Z,6.72
2022-07-29T17:46:44.909Z,4.65
2022-07-29T17:51:38.587Z,2.75
2022-07-29T17:54:06.116Z,2.80
2022-07-29T17:56:33.002Z,6.10
2022-07-29T17:58:59.862Z,3.47
2022-07-29T18:01:27.314Z,5.47
2022-07-29T18:03:59.803Z,3.22
2022-07-29T18:06:27.510Z,4.35
2022-07-29T18:08:54.481Z,3.30
2022-07-29T18:11:21.376Z,2.72
2022-07-29T18:13:48.800Z,3.28
2022-07-29T18:16:15.783Z,3.95
2022-07-29T18:18:44.093Z,4.45
2022-07-29T18:21:13.165Z,7.10
2022-07-29T18:23:39.977Z,5.07
2022-07-29T18:26:06.818Z,3.63
2022-07-29T18:28:34.318Z,5.22
2022-07-29T18:31:01.402Z,6.85
2022-07-29T18:33:28.308Z,5.20
2022-07-29T18:36:07.651Z,3.95
2022-07-29T18:38:40.131Z,3.60
2022-07-29T18:41:07.543Z,4.35
2022-07-29T18:43:34.317Z,4.40
2022-07-29T18:46:01.067Z,3.83
2022-07-29T18:48:32.240Z,5.05
2022-07-29T18:50:59.460Z,4.28
2022-07-29T18:53:26.306Z,6.82
2022-07-29T18:55:58.615Z,8.70
2022-07-29T18:58:27.082Z,7.05
2022-07-29T19:00:54.452Z,7.72
2022-07-29T19:03:21.277Z,6.85
2022-07-29T19:05:48.131Z,5.32
2022-07-29T19:08:15.516Z,7.35
2022-07-29T19:10:42.289Z,3.88
2022-07-29T19:13:10.558Z,4.40
2022-07-29T19:15:41.073Z,4.85
2022-07-29T19:18:07.937Z,4.05
2022-07-29T19:20:34.702Z,4.80
2022-07-29T19:23:02.074Z,4.78
2022-07-29T19:25:28.867Z,3.70
2022-07-29T19:27:56.819Z,5.17
2022-07-29T19:30:25.577Z,8.00
2022-07-29T19:32:52.352Z,6.40
2022-07-29T19:35:19.109Z,8.88
2022-07-29T19:37:46.564Z,5.22
2022-07-29T19:40:13.410Z,8.20
2022-07-29T19:42:40.223Z,4.38
2022-07-29T19:45:08.563Z,6.05
2022-07-29T19:47:36.702Z,7.10
2022-07-29T19:50:04.243Z,7.30
2022-07-29T19:52:31.649Z,7.00
2022-07-29T19:54:58.490Z,4.65
2022-07-29T19:57:25.403Z,9.25
2022-07-29T19:59:53.987Z,8.30
2022-07-29T20:02:20.838Z,8.07
2022-07-29T20:04:49.660Z,6.32
2022-07-29T20:07:17.018Z,11.55
2022-07-29T20:09:43.802Z,5.38
2022-07-29T20:12:11.184Z,7.50
2022-07-29T20:14:38.612Z,4.57
2022-07-29T20:17:05.410Z,5.40
2022-07-29T20:19:32.370Z,4.93
2022-07-29T20:22:01.134Z,4.93
2022-07-29T20:24:28.144Z,5.13
2022-07-29T20:26:54.929Z,6.57
2022-07-29T20:29:22.450Z,5.55
2022-07-29T20:31:52.909Z,5.93
2022-07-29T20:34:24.079Z,7.22
2022-07-29T20:36:50.886Z,7.63
2022-07-29T20:39:19.299Z,9.07
2022-07-29T20:41:46.913Z,5.10
2022-07-29T20:44:13.772Z,5.88
2022-07-29T20:46:40.630Z,3.67
2022-07-29T20:49:08.395Z,6.30
2022-07-29T20:51:43.519Z,5.57
2022-07-29T20:54:11.498Z,8.32
2022-07-29T20:56:39.899Z,6.88
2022-07-29T20:59:06.797Z,4.65
2022-07-29T21:01:34.740Z,5.78
2022-07-29T21:04:02.254Z,9.30
2022-07-29T21:06:29.281Z,6.85
2022-07-29T21:08:56.774Z,7.15
2022-07-29T21:11:43.475Z,11.40
2022-07-29T21:14:12.422Z,6.30
2022-07-29T21:16:39.206Z,6.32
2022-07-29T21:19:05.971Z,8.88
2022-07-29T21:21:33.341Z,7.25
2022-07-29T21:24:00.155Z,6.78
2022-07-29T21:26:26.944Z,13.48
2022-07-29T21:28:55.320Z,8.57
2022-07-29T21:31:23.419Z,7.20
2022-07-29T21:33:50.316Z,8.82
2022-07-29T21:39:04.526Z,8.48
2022-07-29T21:41:32.285Z,8.75
2022-07-29T21:43:59.564Z,12.30
2022-07-29T21:46:29.515Z,9.95
2022-07-29T21:51:23.586Z,10.57
2022-07-29T21:53:50.340Z,7.82
2022-07-29T21:56:20.455Z,7.18
2022-07-29T22:01:16.083Z,8.73
2022-07-29T22:03:44.871Z,8.98
2022-07-29T22:06:18.168Z,9.50
2022-07-29T22:08:46.081Z,8.68
2022-07-29T22:11:12.987Z,9.77
2022-07-29T22:13:40.047Z,7.97
2022-07-29T22:16:07.900Z,9.35
2022-07-29T22:18:34.669Z,14.23
2022-07-29T22:21:02.787Z,10.77
2022-07-29T22:23:30.517Z,9.90
2022-07-29T22:25:57.317Z,10.38
2022-07-29T22:28:24.151Z,13.30
2022-07-29T22:30:51.697Z,15.35
2022-07-29T22:33:18.979Z,8.30
2022-07-29T22:35:48.542Z,11.02
2022-07-29T22:38:18.258Z,12.25
2022-07-29T22:40:45.379Z,11.57
2022-07-29T22:43:12.197Z,14.02
2022-07-29T22:45:39.685Z,9.70
2022-07-29T22:48:06.636Z,13.52
2022-07-29T22:50:33.767Z,15.13
2022-07-29T22:53:01.128Z,12.80
2022-07-29T22:55:29.295Z,16.63
2022-07-29T22:57:56.089Z,13.15
2022-07-29T23:00:23.561Z,13.15
2022-07-29T23:02:50.474Z,16.58
2022-07-29T23:05:17.387Z,11.43
2022-07-29T23:07:44.741Z,13.02
2022-07-29T23:10:11.534Z,13.98
2022-07-29T23:12:39.726Z,16.77
2022-07-29T23:15:07.550Z,13.10
2022-07-29T23:17:36.202Z,13.43
2022-07-29T23:20:05.631Z,14.13
2022-07-29T23:22:33.092Z,14.35
2022-07-29T23:24:59.942Z,11.23
2022-07-29T23:27:26.728Z,13.00
2022-07-29T23:29:55.451Z,12.95
2022-07-29T23:32:22.392Z,13.15
2022-07-29T23:34:49.151Z,13.85
2022-07-29T23:37:16.566Z,12.77
2022-07-29T23:39:43.338Z,14.50
2022-07-29T23:42:10.135Z,15.85
2022-07-29T23:44:37.518Z,11.15
2022-07-29T23:47:05.904Z,15.60
2022-07-29T23:49:32.664Z,14.88
2022-07-29T23:52:00.064Z,16.50
2022-07-29T23:54:26.840Z,14.00
2022-07-29T23:56:53.594Z,14.10
2022-07-29T23:59:20.974Z,10.50
